createdAt,value
2023-06-15T00:00:40.134Z,101805.34
2023-06-15T00:03:09.845Z,101808.09
2023-06-15T00:05:39.665Z,101808.84
2023-06-15T00:08:10.774Z,101813.19
2023-06-15T00:10:40.152Z,101815.03
2023-06-15T00:13:09.403Z,101809.50
2023-06-15T00:15:41.378Z,101811.53
2023-06-15T00:18:10.899Z,101810.69
2023-06-15T00:20:40.669Z,101805.28
2023-06-15T00:23:11.258Z,101811.06
2023-06-15T00:25:40.622Z,101806.03
2023-06-15T00:28:45.913Z,101806.03
2023-06-15T00:31:37.430Z,101812.13
2023-06-15T00:34:06.626Z,101807.13
2023-06-15T00:36:35.855Z,101809.75
2023-06-15T00:39:06.564Z,101813.44
2023-06-15T00:41:43.168Z,101812.25
2023-06-15T00:44:12.865Z,101808.78
2023-06-15T00:46:42.132Z,101812.75
2023-06-15T00:49:11.903Z,101814.53
2023-06-15T00:51:42.221Z,101815.25
2023-06-15T00:54:16.086Z,101814.66
2023-06-15T00:56:45.578Z,101817.75
2023-06-15T00:59:14.821Z,101816.22
2023-06-15T01:01:45.851Z,101813.69
2023-06-15T01:04:15.044Z,101817.88
2023-06-15T01:06:53.098Z,101818.09
2023-06-15T01:09:23.737Z,101823.03
2023-06-15T01:11:56.577Z,101817.63
2023-06-15T01:14:27.891Z,101817.50
2023-06-15T01:17:06.524Z,101819.16
2023-06-15T01:19:55.169Z,101823.59
2023-06-15T01:22:36.904Z,101823.22
2023-06-15T01:25:27.924Z,101820.13
2023-06-15T01:28:05.058Z,101820.59
2023-06-15T01:30:39.620Z,101816.66
2023-06-15T01:33:09.307Z,101817.59
2023-06-15T01:35:42.522Z,101810.72
2023-06-15T01:38:12.538Z,101827.19
2023-06-15T01:40:47.150Z,101826.72
2023-06-15T01:43:21.910Z,101825.59
2023-06-15T01:45:53.681Z,101833.13
2023-06-15T01:48:23.348Z,101824.69
2023-06-15T01:50:52.863Z,101822.75
2023-06-15T01:53:23.939Z,101823.53
2023-06-15T01:55:53.454Z,101820.28
2023-06-15T01:58:25.131Z,101814.69
2023-06-15T02:00:54.790Z,101817.13
2023-06-15T02:03:25.008Z,101818.31
2023-06-15T02:05:54.450Z,101810.78
2023-06-15T02:08:25.151Z,101813.56
2023-06-15T02:10:55.705Z,101805.59
2023-06-15T02:13:28.573Z,101810.34
2023-06-15T02:15:58.176Z,101809.94
2023-06-15T02:18:31.334Z,101814.50
2023-06-15T02:21:00.925Z,101819.28
2023-06-15T02:23:30.148Z,101816.38
2023-06-15T02:26:02.580Z,101815.44
2023-06-15T02:28:36.723Z,101821.63
2023-06-15T02:31:07.360Z,101824.16
2023-06-15T02:33:36.802Z,101825.47
2023-06-15T02:36:07.712Z,101820.75
2023-06-15T02:38:38.451Z,101829.63
2023-06-15T02:41:07.707Z,101819.25
2023-06-15T02:43:38.759Z,101824.09
2023-06-15T02:46:08.205Z,101812.41
2023-06-15T02:48:38.953Z,101813.09
2023-06-15T02:51:08.698Z,101821.63
2023-06-15T02:53:38.208Z,101821.00
2023-06-15T02:56:08.272Z,101818.91
2023-06-15T02:58:43.222Z,101821.13
2023-06-15T03:01:39.363Z,101821.31
2023-06-15T03:04:14.714Z,101831.19
2023-06-15T03:06:47.608Z,101823.00
2023-06-15T03:09:23.597Z,101819.63
2023-06-15T03:11:53.007Z,101827.19
2023-06-15T03:14:30.027Z,101826.56
2023-06-15T03:17:00.509Z,101828.06
2023-06-15T03:19:29.757Z,101826.34
2023-06-15T03:21:59.644Z,101832.53
2023-06-15T03:24:31.368Z,101834.66
2023-06-15T03:27:02.936Z,101829.09
2023-06-15T03:29:37.897Z,101832.03
2023-06-15T03:32:11.780Z,101826.38
2023-06-15T03:34:41.413Z,101831.19
2023-06-15T03:37:12.628Z,101824.28
2023-06-15T03:39:45.310Z,101821.31
2023-06-15T03:42:15.123Z,101823.09
2023-06-15T03:44:46.009Z,101820.38
2023-06-15T03:47:17.486Z,101814.81
2023-06-15T03:49:46.793Z,101819.75
2023-06-15T03:52:17.168Z,101826.16
2023-06-15T03:54:46.643Z,101824.69
2023-06-15T03:57:16.361Z,101823.34
2023-06-15T03:59:47.561Z,101825.97
2023-06-15T04:02:17.200Z,101827.75
2023-06-15T04:04:46.729Z,101831.00
2023-06-15T04:07:18.373Z,101826.38
2023-06-15T04:09:47.588Z,101823.84
2023-06-15T04:12:23.693Z,101822.91
2023-06-15T04:14:54.346Z,101824.47
2023-06-15T04:17:24.910Z,101824.47
2023-06-15T04:19:54.126Z,101828.69
2023-06-15T04:22:30.676Z,101827.41
2023-06-15T04:25:00.040Z,101835.59
2023-06-15T04:27:32.045Z,101838.09
2023-06-15T04:30:03.024Z,101841.50
2023-06-15T04:32:34.188Z,101828.03
2023-06-15T04:35:04.967Z,101826.13
2023-06-15T04:37:34.620Z,101825.25
2023-06-15T04:40:10.845Z,101821.00
2023-06-15T04:42:41.773Z,101825.88
2023-06-15T04:45:14.134Z,101818.41
2023-06-15T04:47:43.647Z,101817.50
2023-06-15T04:50:15.446Z,101814.78
2023-06-15T04:52:45.889Z,101809.06
2023-06-15T04:55:15.621Z,101808.78
2023-06-15T04:57:45.209Z,101807.78
2023-06-15T05:00:17.854Z,101805.88
2023-06-15T05:02:53.381Z,101801.03
2023-06-15T05:05:24.477Z,101803.00
2023-06-15T05:07:54.719Z,101803.22
2023-06-15T05:10:41.285Z,101795.50
2023-06-15T05:13:23.025Z,101792.25
2023-06-15T05:16:00.012Z,101780.78
2023-06-15T05:18:37.265Z,101783.28
2023-06-15T05:21:12.317Z,101776.03
2023-06-15T05:23:47.252Z,101782.25
2023-06-15T05:26:29.825Z,101789.41
2023-06-15T05:29:28.198Z,101793.78
2023-06-15T05:32:01.115Z,101783.19
2023-06-15T05:34:31.799Z,101768.84
2023-06-15T05:37:01.048Z,101780.78
2023-06-15T05:39:38.629Z,101775.06
2023-06-15T05:42:08.716Z,101769.97
2023-06-15T05:44:40.365Z,101769.25
2023-06-15T05:47:12.874Z,101776.19
2023-06-15T05:49:44.270Z,101777.38
2023-06-15T05:52:15.989Z,101772.97
2023-06-15T05:54:46.459Z,101772.38
2023-06-15T05:57:16.964Z,101782.09
2023-06-15T05:59:47.926Z,101778.03
2023-06-15T06:02:18.509Z,101773.16
2023-06-15T06:04:48.623Z,101782.31
2023-06-15T06:07:19.351Z,101782.19
2023-06-15T06:09:48.781Z,101765.56
2023-06-15T06:12:18.499Z,101771.25
2023-06-15T06:14:50.315Z,101759.31
2023-06-15T06:17:42.963Z,101752.13
2023-06-15T06:20:11.397Z,101756.13
2023-06-15T06:22:41.175Z,101759.66
2023-06-15T06:25:14.459Z,101760.31
2023-06-15T06:27:44.268Z,101761.03
2023-06-15T06:30:14.109Z,101754.22
2023-06-15T06:32:46.129Z,101765.81
2023-06-15T06:35:15.649Z,101761.88
2023-06-15T06:37:45.207Z,101762.53
2023-06-15T06:40:15.170Z,101762.00
2023-06-15T06:42:44.496Z,101757.00
2023-06-15T06:45:16.628Z,101754.66
2023-06-15T06:47:47.449Z,101758.53
2023-06-15T06:50:20.005Z,101758.69
2023-06-15T06:52:49.258Z,101751.13
2023-06-15T06:55:18.870Z,101749.00
2023-06-15T06:57:48.325Z,101746.69
2023-06-15T07:00:18.381Z,101746.16
2023-06-15T07:02:48.981Z,101745.06
2023-06-15T07:05:18.633Z,101756.56
2023-06-15T07:07:48.153Z,101746.69
2023-06-15T07:10:17.454Z,101746.06
2023-06-15T07:12:46.589Z,101749.22
2023-06-15T07:15:16.781Z,101741.31
2023-06-15T07:17:46.194Z,101748.34
2023-06-15T07:20:16.788Z,101750.88
2023-06-15T07:22:45.969Z,101749.09
2023-06-15T07:25:15.294Z,101747.25
2023-06-15T07:27:44.651Z,101737.00
2023-06-15T07:30:16.010Z,101749.06
2023-06-15T07:32:45.440Z,101751.38
2023-06-15T07:35:18.535Z,101754.59
2023-06-15T07:37:50.004Z,101749.63
2023-06-15T07:40:19.771Z,101755.53
2023-06-15T07:42:49.128Z,101745.66
2023-06-15T07:45:18.323Z,101753.22
2023-06-15T07:47:47.565Z,101748.88
2023-06-15T07:50:21.115Z,101749.16
2023-06-15T07:52:52.193Z,101750.41
2023-06-15T07:55:21.489Z,101739.00
2023-06-15T07:57:50.646Z,101743.16
2023-06-15T08:00:21.690Z,101744.03
2023-06-15T08:03:01.339Z,101745.88
2023-06-15T08:05:32.317Z,101746.44
2023-06-15T08:08:01.470Z,101735.44
2023-06-15T08:10:35.282Z,101732.19
2023-06-15T08:13:04.411Z,101741.16
2023-06-15T08:15:33.728Z,101741.22
2023-06-15T08:18:04.146Z,101741.25
2023-06-15T08:20:35.850Z,101741.94
2023-06-15T08:23:05.242Z,101740.53
2023-06-15T08:25:35.682Z,101741.31
2023-06-15T08:28:05.064Z,101736.91
2023-06-15T08:30:34.554Z,101728.94
2023-06-15T08:33:03.993Z,101745.91
2023-06-15T08:35:35.178Z,101734.47
2023-06-15T08:38:05.550Z,101732.25
2023-06-15T08:40:34.799Z,101742.09
2023-06-15T08:43:05.826Z,101745.88
2023-06-15T08:45:43.211Z,101746.41
2023-06-15T08:48:16.184Z,101752.50
2023-06-15T08:50:52.465Z,101744.72
2023-06-15T08:53:24.189Z,101747.09
2023-06-15T08:55:54.821Z,101751.88
2023-06-15T08:58:24.581Z,101763.53
2023-06-15T09:00:55.772Z,101763.13
2023-06-15T09:03:26.070Z,101770.41
2023-06-15T09:05:57.099Z,101766.81
2023-06-15T09:08:27.210Z,101772.50
2023-06-15T09:11:09.455Z,101772.44
2023-06-15T09:13:38.761Z,101779.69
2023-06-15T09:16:13.497Z,101775.09
2023-06-15T09:18:47.225Z,101768.34
2023-06-15T09:21:21.891Z,101768.66
2023-06-15T09:23:51.860Z,101765.16
2023-06-15T09:26:25.223Z,101763.66
2023-06-15T09:28:57.453Z,101756.38
2023-06-15T09:31:34.262Z,101756.84
2023-06-15T09:34:04.719Z,101754.53
2023-06-15T09:36:45.949Z,101753.22
2023-06-15T09:39:16.744Z,101751.66
2023-06-15T09:41:58.271Z,101749.06
2023-06-15T09:44:28.502Z,101763.53
2023-06-15T09:47:03.566Z,101764.69
2023-06-15T09:49:33.352Z,101757.94
2023-06-15T09:52:03.958Z,101756.00
2023-06-15T09:54:33.697Z,101766.94
2023-06-15T09:57:03.505Z,101760.69
2023-06-15T09:59:35.397Z,101760.63
2023-06-15T10:02:10.025Z,101750.66
2023-06-15T10:04:41.750Z,101755.38
2023-06-15T10:07:14.758Z,101748.03
2023-06-15T10:09:50.418Z,101748.63
2023-06-15T10:12:22.925Z,101748.94
2023-06-15T10:14:57.815Z,101745.03
2023-06-15T10:17:32.254Z,101747.94
2023-06-15T10:20:10.383Z,101743.47
2023-06-15T10:22:46.304Z,101736.66
2023-06-15T10:25:18.090Z,101734.47
2023-06-15T10:27:47.557Z,101733.91
2023-06-15T10:30:26.206Z,101729.38
2023-06-15T10:32:59.720Z,101726.06
2023-06-15T10:35:36.200Z,101719.88
2023-06-15T10:38:18.311Z,101717.94
2023-06-15T10:40:50.928Z,101717.88
2023-06-15T10:43:20.961Z,101724.69
2023-06-15T10:45:50.635Z,101721.06
2023-06-15T10:48:24.735Z,101711.03
2023-06-15T10:50:54.274Z,101725.25
2023-06-15T10:53:26.865Z,101717.47
2023-06-15T10:55:57.445Z,101718.06
2023-06-15T10:58:28.823Z,101723.97
2023-06-15T11:01:10.105Z,101730.41
2023-06-15T11:03:43.300Z,101721.56
2023-06-15T11:06:19.445Z,101725.53
2023-06-15T11:08:56.542Z,101706.41
2023-06-15T11:11:32.992Z,101710.31
2023-06-15T11:14:05.395Z,101721.22
2023-06-15T11:16:37.333Z,101709.72
2023-06-15T11:19:28.676Z,101705.19
2023-06-15T11:22:02.706Z,101708.38
2023-06-15T11:24:41.544Z,101706.81
2023-06-15T11:27:13.573Z,101714.31
2023-06-15T11:29:44.460Z,101707.22
2023-06-15T11:32:16.053Z,101690.97
2023-06-15T11:34:45.229Z,101696.75
2023-06-15T11:37:17.530Z,101695.00
2023-06-15T11:39:48.428Z,101678.84
2023-06-15T11:42:27.025Z,101683.56
2023-06-15T11:44:57.868Z,101678.44
2023-06-15T11:47:36.581Z,101675.34
2023-06-15T11:50:07.353Z,101683.22
2023-06-15T11:52:43.955Z,101666.22
2023-06-15T11:55:17.795Z,101674.88
2023-06-15T11:57:46.993Z,101672.66
2023-06-15T12:00:17.530Z,101663.69
2023-06-15T12:02:46.999Z,101666.09
2023-06-15T12:05:18.371Z,101652.81
2023-06-15T12:07:48.260Z,101654.63
2023-06-15T12:10:19.952Z,101657.56
2023-06-15T12:12:51.380Z,101657.75
2023-06-15T12:15:22.225Z,101645.09
2023-06-15T12:17:51.880Z,101633.56
2023-06-15T12:20:21.501Z,101647.19
2023-06-15T12:22:51.688Z,101646.59
2023-06-15T12:25:42.974Z,101640.91
2023-06-15T12:28:23.445Z,101650.38
2023-06-15T12:30:54.353Z,101639.63
2023-06-15T12:33:30.436Z,101636.69
2023-06-15T12:36:01.737Z,101645.41
2023-06-15T12:38:32.090Z,101642.09
2023-06-15T12:41:03.197Z,101642.28
2023-06-15T12:43:32.867Z,101647.59
2023-06-15T12:46:03.189Z,101638.09
2023-06-15T12:48:33.371Z,101634.34
2023-06-15T12:51:03.763Z,101627.91
2023-06-15T12:53:33.382Z,101626.50
2023-06-15T12:56:04.272Z,101634.06
2023-06-15T12:58:33.747Z,101633.09
2023-06-15T13:01:03.407Z,101623.44
2023-06-15T13:03:33.059Z,101629.97
2023-06-15T13:06:02.286Z,101623.25
2023-06-15T13:08:31.956Z,101620.38
2023-06-15T13:11:01.479Z,101622.31
2023-06-15T13:13:32.285Z,101615.22
2023-06-15T13:16:04.173Z,101607.38
2023-06-15T13:18:33.437Z,101596.84
2023-06-15T13:21:02.774Z,101603.22
2023-06-15T13:23:32.559Z,101597.47
2023-06-15T13:26:01.774Z,101588.31
2023-06-15T13:28:32.647Z,101591.38
2023-06-15T13:31:02.022Z,101598.31
2023-06-15T13:33:31.494Z,101605.03
2023-06-15T13:36:01.099Z,101591.16
2023-06-15T13:38:32.350Z,101587.69
2023-06-15T13:41:01.544Z,101601.19
2023-06-15T13:43:32.519Z,101594.06
2023-06-15T13:46:02.177Z,101573.47
2023-06-15T13:48:33.066Z,101587.91
2023-06-15T13:51:02.330Z,101586.66
2023-06-15T13:53:32.495Z,101591.41
2023-06-15T13:56:03.289Z,101578.56
2023-06-15T13:58:35.670Z,101583.59
2023-06-15T14:01:05.421Z,101579.47
2023-06-15T14:03:37.106Z,101567.06
2023-06-15T14:06:06.731Z,101571.44
2023-06-15T14:08:36.318Z,101565.00
2023-06-15T14:11:05.814Z,101566.06
2023-06-15T14:13:39.002Z,101553.22
2023-06-15T14:16:08.510Z,101564.41
2023-06-15T14:18:38.671Z,101571.00
2023-06-15T14:21:07.923Z,101562.31
2023-06-15T14:23:37.188Z,101569.53
2023-06-15T14:26:06.425Z,101563.66
2023-06-15T14:28:37.171Z,101569.94
2023-06-15T14:31:06.381Z,101556.13
2023-06-15T14:33:35.716Z,101547.03
2023-06-15T14:36:05.166Z,101563.94
2023-06-15T14:38:34.652Z,101559.41
2023-06-15T14:41:04.243Z,101560.19
2023-06-15T14:43:33.392Z,101555.66
2023-06-15T14:46:04.035Z,101559.72
2023-06-15T14:51:03.414Z,101559.19
2023-06-15T14:53:32.921Z,101555.75
2023-06-15T14:56:02.719Z,101561.13
2023-06-15T14:58:33.867Z,101555.25
2023-06-15T15:01:05.667Z,101548.91
2023-06-15T15:03:35.654Z,101558.16
2023-06-15T15:06:05.247Z,101552.94
2023-06-15T15:08:44.045Z,101559.03
2023-06-15T15:11:13.465Z,101557.97
2023-06-15T15:13:42.965Z,101553.44
2023-06-15T15:16:13.733Z,101556.34
2023-06-15T15:18:43.077Z,101554.94
2023-06-15T15:21:12.671Z,101549.00
2023-06-15T15:23:42.833Z,101555.84
2023-06-15T15:26:12.375Z,101542.00
2023-06-15T15:28:43.225Z,101550.88
2023-06-15T15:31:17.242Z,101545.91
2023-06-15T15:33:47.703Z,101541.66
2023-06-15T15:36:17.396Z,101538.72
2023-06-15T15:38:46.692Z,101539.75
2023-06-15T15:41:17.523Z,101556.88
2023-06-15T15:43:46.910Z,101546.34
2023-06-15T15:46:17.937Z,101549.13
2023-06-15T15:48:47.708Z,101552.91
2023-06-15T15:51:18.162Z,101547.34
2023-06-15T15:53:49.810Z,101537.84
2023-06-15T15:56:19.180Z,101537.91
2023-06-15T15:58:48.436Z,101540.06
2023-06-15T16:04:13.579Z,101544.56
2023-06-15T16:06:42.826Z,101545.91
2023-06-15T16:09:15.563Z,101537.34
2023-06-15T16:11:45.504Z,101537.97
2023-06-15T16:14:14.801Z,101539.78
2023-06-15T16:16:45.610Z,101534.69
2023-06-15T16:19:15.269Z,101533.84
2023-06-15T16:21:44.882Z,101534.69
2023-06-15T16:24:14.043Z,101531.34
2023-06-15T16:26:43.539Z,101529.75
2023-06-15T16:29:12.997Z,101543.34
2023-06-15T16:31:42.147Z,101523.09
2023-06-15T16:34:15.330Z,101533.56
2023-06-15T16:36:44.625Z,101521.41
2023-06-15T16:39:38.417Z,101531.38
2023-06-15T16:42:08.328Z,101530.09
2023-06-15T16:44:38.120Z,101523.47
2023-06-15T16:47:08.526Z,101519.38
2023-06-15T16:49:40.828Z,101527.56
2023-06-15T16:52:35.758Z,101534.06
2023-06-15T16:55:05.982Z,101530.97
2023-06-15T16:57:36.870Z,101529.69
2023-06-15T17:00:08.678Z,101526.88
2023-06-15T17:02:38.375Z,101528.78
2023-06-15T17:05:10.895Z,101521.50
2023-06-15T17:07:42.904Z,101518.78
2023-06-15T17:10:12.639Z,101516.53
2023-06-15T17:12:42.083Z,101518.50
2023-06-15T17:15:12.186Z,101520.91
2023-06-15T17:17:41.274Z,101517.69
2023-06-15T17:20:13.048Z,101517.56
2023-06-15T17:22:42.813Z,101514.22
2023-06-15T17:25:13.481Z,101514.44
2023-06-15T17:27:43.012Z,101514.41
2023-06-15T17:30:13.610Z,101512.97
2023-06-15T17:32:43.154Z,101511.50
2023-06-15T17:35:15.914Z,101511.56
2023-06-15T17:37:49.366Z,101514.00
2023-06-15T17:40:19.257Z,101512.13
2023-06-15T17:42:49.451Z,101514.38
2023-06-15T17:45:19.340Z,101522.59
2023-06-15T17:47:51.381Z,101527.53
2023-06-15T17:50:23.553Z,101522.63
2023-06-15T17:52:53.136Z,101525.88
2023-06-15T17:55:23.521Z,101524.31
2023-06-15T17:57:54.810Z,101522.22
2023-06-15T18:00:24.818Z,101524.66
2023-06-15T18:02:54.485Z,101527.19
2023-06-15T18:05:29.203Z,101531.44
2023-06-15T18:07:58.842Z,101533.63
2023-06-15T18:10:28.585Z,101531.78
2023-06-15T18:13:00.206Z,101535.44
2023-06-15T18:15:33.439Z,101536.44
2023-06-15T18:18:05.460Z,101539.94
2023-06-15T18:20:40.293Z,101544.09
2023-06-15T18:23:10.235Z,101541.66
2023-06-15T18:25:40.055Z,101549.44
2023-06-15T18:28:11.164Z,101549.31
2023-06-15T18:30:42.159Z,101552.69
2023-06-15T18:33:12.137Z,101548.50
2023-06-15T18:35:45.280Z,101554.00
2023-06-15T18:38:17.948Z,101551.25
2023-06-15T18:40:47.267Z,101549.22
2023-06-15T18:43:17.876Z,101554.81
2023-06-15T18:45:47.262Z,101551.50
2023-06-15T18:48:16.717Z,101551.22
2023-06-15T18:50:47.624Z,101553.81
2023-06-15T18:53:16.831Z,101551.75
2023-06-15T18:55:50.362Z,101551.53
2023-06-15T18:58:21.703Z,101547.56
2023-06-15T19:00:54.120Z,101547.34
2023-06-15T19:03:23.579Z,101545.75
2023-06-15T19:05:55.491Z,101555.97
2023-06-15T19:08:25.246Z,101543.38
2023-06-15T19:10:56.345Z,101553.03
2023-06-15T19:13:31.848Z,101549.88
2023-06-15T19:16:02.935Z,101552.44
2023-06-15T19:18:33.572Z,101566.63
2023-06-15T19:21:06.010Z,101559.97
2023-06-15T19:23:36.862Z,101561.00
2023-06-15T19:26:15.041Z,101565.22
2023-06-15T19:28:47.349Z,101568.75
2023-06-15T19:31:18.984Z,101560.94
2023-06-15T19:33:49.306Z,101568.06
2023-06-15T19:36:22.057Z,101564.78
2023-06-15T19:39:01.890Z,101564.47
2023-06-15T19:41:35.595Z,101563.50
2023-06-15T19:44:05.449Z,101562.81
2023-06-15T19:46:35.463Z,101565.84
2023-06-15T19:49:05.425Z,101561.88
2023-06-15T19:51:37.750Z,101573.34
2023-06-15T19:54:07.557Z,101574.19
2023-06-15T19:56:41.284Z,101568.03
2023-06-15T19:59:13.699Z,101572.22
2023-06-15T20:01:45.706Z,101569.19
2023-06-15T20:04:15.698Z,101578.66
2023-06-15T20:06:47.075Z,101571.28
2023-06-15T20:09:17.676Z,101578.88
2023-06-15T20:11:47.643Z,101582.72
2023-06-15T20:14:18.907Z,101575.72
2023-06-15T20:16:48.922Z,101578.25
2023-06-15T20:19:20.823Z,101580.91
2023-06-15T20:21:53.056Z,101576.41
2023-06-15T20:24:23.362Z,101578.88
2023-06-15T20:26:52.963Z,101564.13
2023-06-15T20:29:24.117Z,101573.06
2023-06-15T20:31:53.955Z,101574.25
2023-06-15T20:34:23.828Z,101568.59
2023-06-15T20:36:57.055Z,101568.56
2023-06-15T20:39:26.754Z,101569.06
2023-06-15T20:41:56.189Z,101568.09
2023-06-15T20:44:27.231Z,101572.41
2023-06-15T20:46:57.657Z,101567.03
2023-06-15T20:49:26.953Z,101568.97
2023-06-15T20:51:58.058Z,101571.41
2023-06-15T20:54:27.746Z,101568.34
2023-06-15T20:56:59.009Z,101570.84
2023-06-15T20:59:28.299Z,101562.97
2023-06-15T21:01:58.934Z,101559.06
2023-06-15T21:04:28.685Z,101563.44
2023-06-15T21:06:59.581Z,101566.94
2023-06-15T21:09:30.127Z,101564.34
2023-06-15T21:11:59.413Z,101560.41
2023-06-15T21:14:28.649Z,101563.28
2023-06-15T21:16:58.190Z,101565.31
2023-06-15T21:19:28.835Z,101564.19
2023-06-15T21:22:01.616Z,101557.44
2023-06-15T21:24:33.435Z,101565.25
2023-06-15T21:27:03.320Z,101556.13
2023-06-15T21:29:32.684Z,101557.69
2023-06-15T21:32:03.398Z,101549.66
2023-06-15T21:34:32.862Z,101549.47
2023-06-15T21:37:06.601Z,101547.09
2023-06-15T21:39:36.320Z,101550.38
2023-06-15T21:42:15.987Z,101548.25
2023-06-15T21:44:49.166Z,101538.03
2023-06-15T21:47:18.680Z,101539.72
2023-06-15T21:49:47.939Z,101538.22
2023-06-15T21:52:19.440Z,101535.94
2023-06-15T21:54:49.465Z,101536.19
2023-06-15T21:57:23.346Z,101539.25
2023-06-15T21:59:54.023Z,101542.09
2023-06-15T22:02:32.996Z,101539.91
2023-06-15T22:05:03.029Z,101539.72
2023-06-15T22:07:36.788Z,101540.69
2023-06-15T22:10:07.736Z,101544.53
2023-06-15T22:12:38.535Z,101546.41
2023-06-15T22:15:10.583Z,101557.44
2023-06-15T22:17:42.560Z,101558.41
2023-06-15T22:20:15.327Z,101551.91
2023-06-15T22:22:46.552Z,101552.44
2023-06-15T22:25:16.210Z,101541.59
2023-06-15T22:27:45.984Z,101545.16
2023-06-15T22:30:17.236Z,101553.09
2023-06-15T22:32:53.188Z,101545.50
2023-06-15T22:35:24.340Z,101542.34
2023-06-15T22:37:59.049Z,101545.69
2023-06-15T22:40:30.078Z,101545.38
2023-06-15T22:42:59.511Z,101540.53
2023-06-15T22:45:29.006Z,101539.00
2023-06-15T22:48:01.085Z,101532.44
2023-06-15T22:50:33.266Z,101539.56
2023-06-15T22:53:04.790Z,101535.38
2023-06-15T22:55:34.114Z,101543.72
2023-06-15T22:58:03.410Z,101541.34
2023-06-15T23:00:32.837Z,101540.41
2023-06-15T23:03:08.661Z,101548.78
2023-06-15T23:05:40.326Z,101553.22
2023-06-15T23:08:22.416Z,101546.63
2023-06-15T23:10:54.101Z,101545.38
2023-06-15T23:13:23.949Z,101536.47
2023-06-15T23:15:56.688Z,101527.19
2023-06-15T23:18:28.229Z,101526.03
2023-06-15T23:21:00.633Z,101528.63
2023-06-15T23:23:38.586Z,101527.88
2023-06-15T23:26:09.714Z,101526.44
2023-06-15T23:28:40.734Z,101519.69
2023-06-15T23:31:10.405Z,101521.19
2023-06-15T23:33:40.204Z,101516.72
2023-06-15T23:36:15.124Z,101520.88
2023-06-15T23:38:47.304Z,101517.03
2023-06-15T23:41:22.717Z,101515.69
2023-06-15T23:43:54.071Z,101511.78
2023-06-15T23:46:24.171Z,101506.19
2023-06-15T23:48:54.325Z,101499.56
2023-06-15T23:51:24.094Z,101498.41
2023-06-15T23:53:55.300Z,101497.94
2023-06-15T23:56:26.724Z,101499.09
2023-06-15T23:58:58.389Z,101508.28
